Terminal Aerodrome Forecast
Issued by NWS Sioux Falls, SD

Home | Current Version | Previous Version | Text Only | Print | Product List | Glossary Off
Versions: 1 2 3 4 5 6 7 8 9 10 11 12 13 14 15 16 17 18 19 20 21 22 23 24 25 26 27 28 29 30 31 32 33 34 35 36 37 38 39 40 41 42 43 44 45 46 47 48 49

000
FTUS43 KFSD 260520
TAFSUX
TAF
KSUX 260520Z 2606/2706 17007KT P6SM SCT035 BKN080
      TEMPO 2606/2608 6SM TSRA BKN035CB
     FM261000 12006KT P6SM SHRA SCT015 OVC080
     FM261600 36007KT P6SM SCT025 OVC050
     FM262300 35007KT P6SM BKN050 BKN100=

USA.gov is the U.S. government's official web portal to all federal, state and local government web resources and services.